createdAt,value
2019-03-26T00:01:42.655Z,52.27
2019-03-26T00:04:38.305Z,49.33
2019-03-26T00:07:34.066Z,49.05
2019-03-26T00:10:29.885Z,49.88
2019-03-26T00:13:25.854Z,60.90
2019-03-26T00:16:21.719Z,57.70
2019-03-26T00:19:17.688Z,54.75
2019-03-26T00:22:13.443Z,57.65
2019-03-26T00:25:09.505Z,62.53
2019-03-26T00:28:06.117Z,65.70
2019-03-26T00:31:02.113Z,59.23
2019-03-26T00:33:58.972Z,67.60
2019-03-26T00:36:54.999Z,61.55
2019-03-26T00:39:50.337Z,50.92
2019-03-26T00:42:45.852Z,54.13
2019-03-26T00:45:41.535Z,55.00
2019-03-26T00:48:38.613Z,48.57
2019-03-26T00:51:34.308Z,54.83
2019-03-26T00:54:29.844Z,54.73
2019-03-26T00:57:25.193Z,62.43
2019-03-26T01:00:25.518Z,63.08
2019-03-26T01:03:21.042Z,57.90
2019-03-26T01:06:16.836Z,58.48
2019-03-26T01:09:12.855Z,69.27
2019-03-26T01:12:08.817Z,59.77
2019-03-26T01:15:04.570Z,64.30
2019-03-26T01:18:00.293Z,60.23
2019-03-26T01:20:55.743Z,64.60
2019-03-26T01:23:51.788Z,70.62
2019-03-26T01:26:47.881Z,72.17
2019-03-26T01:29:43.856Z,64.17
2019-03-26T01:32:39.629Z,65.80
2019-03-26T01:35:36.179Z,68.65
2019-03-26T01:38:32.046Z,67.42
2019-03-26T01:41:28.333Z,64.87
2019-03-26T01:44:24.063Z,67.78
2019-03-26T01:47:20.239Z,87.10
2019-03-26T01:50:16.227Z,92.70
2019-03-26T01:53:11.681Z,80.47
2019-03-26T01:56:06.966Z,90.17
2019-03-26T01:59:12.447Z,92.47
2019-03-26T02:02:04.282Z,102.05
2019-03-26T02:05:00.628Z,95.07
2019-03-26T02:07:57.722Z,98.47
2019-03-26T02:10:56.131Z,104.43
2019-03-26T02:13:55.038Z,92.45
2019-03-26T02:16:50.763Z,96.60
2019-03-26T02:19:46.379Z,95.45
2019-03-26T02:22:41.873Z,88.87
2019-03-26T02:25:37.428Z,99.35
2019-03-26T02:28:33.456Z,83.67
2019-03-26T02:31:29.201Z,95.30
2019-03-26T02:34:24.878Z,86.40
2019-03-26T02:37:20.728Z,87.82
2019-03-26T02:40:16.735Z,86.17
2019-03-26T02:43:12.246Z,82.62
2019-03-26T02:46:07.954Z,101.12
2019-03-26T02:49:08.108Z,75.15
2019-03-26T02:52:03.885Z,86.57
2019-03-26T02:55:00.970Z,83.80
2019-03-26T02:57:56.868Z,80.83
2019-03-26T03:00:53.204Z,81.90
2019-03-26T03:03:49.126Z,80.90
2019-03-26T03:06:44.996Z,79.67
2019-03-26T03:09:42.332Z,76.35
2019-03-26T03:12:38.852Z,81.42
2019-03-26T03:15:36.684Z,79.67
2019-03-26T03:18:34.158Z,84.47
2019-03-26T03:21:29.878Z,79.67
2019-03-26T03:24:26.236Z,72.95
2019-03-26T03:27:22.094Z,73.57
2019-03-26T03:30:17.765Z,72.67
2019-03-26T03:33:14.680Z,91.37
2019-03-26T03:36:12.749Z,81.78
2019-03-26T03:39:09.775Z,73.92
2019-03-26T03:42:06.500Z,86.92
2019-03-26T03:45:08.148Z,91.72
2019-03-26T03:48:04.737Z,104.27
2019-03-26T03:51:02.036Z,99.13
2019-03-26T03:53:58.221Z,87.05
2019-03-26T03:56:56.047Z,103.83
2019-03-26T03:59:52.189Z,82.65
2019-03-26T04:02:47.590Z,108.47
2019-03-26T04:05:44.004Z,117.22
2019-03-26T04:08:41.520Z,124.62
2019-03-26T04:11:37.159Z,96.90
2019-03-26T04:14:32.939Z,107.30
2019-03-26T04:17:28.662Z,94.28
2019-03-26T04:20:24.508Z,91.87
2019-03-26T04:23:20.021Z,91.78
2019-03-26T04:26:15.633Z,81.02
2019-03-26T04:29:11.368Z,86.25
2019-03-26T04:32:06.842Z,83.65
2019-03-26T04:35:04.441Z,83.82
2019-03-26T04:38:01.482Z,79.35
2019-03-26T05:04:37.399Z,93.03
2019-03-26T05:07:35.064Z,89.55
2019-03-26T05:10:33.636Z,91.80
2019-03-26T05:13:33.012Z,94.37
2019-03-26T05:16:33.044Z,95.75
2019-03-26T05:19:30.321Z,86.02
2019-03-26T05:22:28.184Z,91.22
2019-03-26T05:25:27.450Z,85.55
2019-03-26T05:28:27.749Z,107.20
2019-03-26T05:31:26.048Z,87.92
2019-03-26T05:34:22.593Z,100.22
2019-03-26T05:37:18.739Z,107.45
2019-03-26T05:40:19.754Z,91.40
2019-03-26T05:43:19.886Z,95.03
2019-03-26T05:46:22.128Z,102.02
2019-03-26T05:49:23.047Z,95.28
2019-03-26T05:52:22.560Z,109.17
2019-03-26T05:55:22.165Z,103.80
2019-03-26T05:58:25.669Z,94.60
2019-03-26T06:01:29.689Z,98.50
2019-03-26T06:04:30.873Z,98.03
2019-03-26T06:07:38.499Z,103.42
2019-03-26T06:10:44.248Z,115.80
2019-03-26T06:13:41.526Z,112.28
2019-03-26T06:16:42.627Z,105.10
2019-03-26T06:19:57.275Z,107.07
2019-03-26T06:22:55.651Z,110.07
2019-03-26T06:25:57.382Z,100.85
2019-03-26T06:28:57.206Z,106.35
2019-03-26T06:31:58.949Z,123.13
2019-03-26T06:34:55.563Z,102.85
2019-03-26T06:37:52.654Z,87.65
2019-03-26T06:41:01.540Z,113.00
2019-03-26T06:44:05.124Z,92.40
2019-03-26T06:47:02.072Z,110.15
2019-03-26T06:50:05.951Z,104.53
2019-03-26T06:53:05.901Z,101.92
2019-03-26T06:56:04.428Z,96.80
2019-03-26T06:59:45.144Z,102.22
2019-03-26T07:03:17.347Z,88.62
2019-03-26T07:07:03.704Z,104.87
2019-03-26T07:10:25.251Z,91.78
2019-03-26T07:13:58.276Z,92.78
2019-03-26T07:17:18.358Z,87.42
2019-03-26T07:20:17.527Z,101.10
2019-03-26T07:23:42.104Z,90.25
2019-03-26T07:27:00.919Z,103.27
2019-03-26T07:30:45.571Z,98.17
2019-03-26T07:34:01.132Z,109.07
2019-03-26T07:38:03.927Z,99.22
2019-03-26T07:41:30.440Z,102.82
2019-03-26T07:44:46.143Z,101.53
2019-03-26T07:47:45.784Z,93.70
2019-03-26T07:51:06.059Z,90.57
2019-03-26T07:54:27.983Z,98.03
2019-03-26T07:57:32.078Z,89.20
2019-03-26T08:00:36.721Z,105.45
2019-03-26T08:03:39.913Z,94.60
2019-03-26T08:06:37.338Z,87.95
2019-03-26T08:09:50.624Z,95.72
2019-03-26T08:13:12.158Z,96.17
2019-03-26T08:16:42.860Z,96.12
2019-03-26T08:19:41.574Z,94.58
2019-03-26T08:22:39.314Z,99.75
2019-03-26T08:25:45.052Z,105.70
2019-03-26T08:28:51.840Z,95.75
2019-03-26T08:31:49.541Z,103.47
2019-03-26T08:34:50.193Z,104.60
2019-03-26T08:37:49.284Z,97.88
2019-03-26T08:40:46.586Z,95.90
2019-03-26T08:43:48.090Z,95.00
2019-03-26T08:46:46.393Z,105.10
2019-03-26T08:49:44.569Z,91.85
2019-03-26T08:52:47.308Z,110.85
2019-03-26T08:55:58.330Z,105.87
2019-03-26T08:59:02.666Z,99.10
2019-03-26T09:16:23.690Z,103.83
2019-03-26T09:19:22.374Z,96.70
2019-03-26T09:22:20.130Z,106.92
2019-03-26T09:25:20.846Z,104.35
2019-03-26T09:28:19.506Z,104.12
2019-03-26T09:31:17.824Z,94.80
2019-03-26T09:34:14.587Z,119.50
2019-03-26T09:37:10.784Z,99.32
2019-03-26T09:40:07.818Z,96.05
2019-03-26T09:43:03.529Z,98.82
2019-03-26T09:46:01.075Z,95.32
2019-03-26T09:49:11.436Z,103.15
2019-03-26T09:52:17.425Z,102.10
2019-03-26T09:55:20.353Z,95.87
2019-03-26T09:58:20.817Z,97.67
2019-03-26T10:01:23.288Z,99.83
2019-03-26T10:04:20.318Z,96.50
2019-03-26T10:07:21.816Z,107.00
2019-03-26T10:10:21.518Z,100.75
2019-03-26T10:13:21.332Z,96.50
2019-03-26T10:16:21.800Z,102.45
2019-03-26T10:19:18.104Z,106.47
2019-03-26T10:22:19.840Z,96.85
2019-03-26T10:25:14.162Z,96.35
2019-03-26T10:28:10.042Z,107.67
2019-03-26T10:31:10.255Z,99.28
2019-03-26T10:34:07.862Z,98.42
2019-03-26T10:37:04.964Z,93.45
2019-03-26T10:40:01.426Z,97.92
2019-03-26T10:43:01.062Z,108.40
2019-03-26T10:45:58.846Z,107.78
2019-03-26T10:48:55.186Z,107.52
2019-03-26T10:51:51.247Z,96.45
2019-03-26T10:54:47.697Z,101.00
2019-03-26T10:57:43.547Z,97.47
2019-03-26T11:00:40.003Z,95.40
2019-03-26T11:03:36.688Z,93.15
2019-03-26T11:06:35.399Z,89.70
2019-03-26T11:09:35.482Z,94.55
2019-03-26T11:12:31.932Z,96.60
2019-03-26T11:15:29.346Z,93.03
2019-03-26T11:18:25.880Z,82.95
2019-03-26T11:21:22.907Z,98.85
2019-03-26T11:24:27.419Z,89.05
2019-03-26T11:27:50.208Z,91.53
2019-03-26T11:30:46.580Z,83.35
2019-03-26T11:33:43.133Z,75.20
2019-03-26T11:36:43.693Z,77.58
2019-03-26T11:39:42.053Z,81.72
2019-03-26T11:42:42.840Z,82.02
2019-03-26T11:45:38.484Z,89.90
2019-03-26T11:48:34.597Z,75.25
2019-03-26T11:51:32.158Z,76.92
2019-03-26T11:54:28.939Z,71.28
2019-03-26T11:57:24.736Z,69.03
2019-03-26T12:00:26.175Z,73.28
2019-03-26T12:03:26.613Z,68.55
2019-03-26T12:06:23.573Z,71.05
2019-03-26T12:09:20.195Z,78.07
2019-03-26T12:12:18.727Z,78.15
2019-03-26T12:15:17.777Z,64.92
2019-03-26T12:18:17.701Z,66.37
2019-03-26T12:21:17.378Z,65.47
2019-03-26T12:24:13.483Z,60.05
2019-03-26T12:27:15.273Z,67.82
2019-03-26T12:30:12.207Z,64.62
2019-03-26T12:33:08.995Z,67.53
2019-03-26T12:36:04.374Z,73.15
2019-03-26T12:38:59.649Z,64.62
2019-03-26T12:41:56.193Z,65.97
2019-03-26T12:44:59.811Z,73.95
2019-03-26T12:47:56.775Z,65.08
2019-03-26T12:50:52.998Z,83.27
2019-03-26T12:53:48.817Z,72.03
2019-03-26T12:56:45.170Z,72.35
2019-03-26T12:59:41.254Z,74.60
2019-03-26T13:02:38.510Z,71.60
2019-03-26T13:05:34.685Z,88.35
2019-03-26T13:08:31.147Z,81.15
2019-03-26T13:11:28.052Z,75.08
2019-03-26T13:14:24.756Z,77.22
2019-03-26T13:17:20.880Z,84.10
2019-03-26T13:20:17.807Z,95.60
2019-03-26T13:23:14.373Z,93.75
2019-03-26T13:26:12.265Z,97.30
2019-03-26T13:29:23.320Z,97.35
2019-03-26T13:32:20.585Z,95.55
2019-03-26T13:35:16.585Z,92.50
2019-03-26T13:38:15.564Z,92.40
2019-03-26T13:41:11.435Z,100.92
2019-03-26T13:44:07.615Z,108.20
2019-03-26T13:47:04.503Z,90.67
2019-03-26T13:50:00.707Z,90.45
2019-03-26T13:52:56.736Z,97.72
2019-03-26T13:55:53.186Z,94.42
2019-03-26T13:58:48.646Z,100.65
2019-03-26T14:01:44.405Z,96.17
2019-03-26T14:04:40.846Z,98.60
2019-03-26T14:07:36.544Z,83.00
2019-03-26T14:10:40.927Z,94.35
2019-03-26T14:13:29.099Z,83.50
2019-03-26T14:16:26.250Z,90.67
2019-03-26T14:19:22.012Z,87.00
2019-03-26T14:22:17.868Z,81.30
2019-03-26T14:25:14.825Z,77.60
2019-03-26T14:28:10.571Z,81.78
2019-03-26T14:31:07.967Z,83.67
2019-03-26T14:34:04.644Z,88.80
2019-03-26T14:37:01.696Z,85.40
2019-03-26T14:39:57.745Z,71.95
2019-03-26T14:42:53.453Z,82.78
2019-03-26T14:45:49.572Z,83.17
2019-03-26T14:48:44.940Z,80.95
2019-03-26T14:51:40.396Z,77.40
2019-03-26T14:54:36.531Z,87.35
2019-03-26T14:57:32.194Z,81.47
2019-03-26T15:00:27.873Z,81.47
2019-03-26T15:03:25.422Z,78.33
2019-03-26T15:06:21.371Z,73.52
2019-03-26T15:09:17.354Z,79.75
2019-03-26T15:12:14.205Z,72.95
2019-03-26T15:15:10.328Z,71.67
2019-03-26T15:18:06.225Z,79.27
2019-03-26T15:21:01.805Z,70.05
2019-03-26T15:23:57.141Z,67.58
2019-03-26T15:26:53.651Z,76.37
2019-03-26T15:29:52.038Z,78.28
2019-03-26T15:32:49.745Z,77.37
2019-03-26T15:35:45.623Z,75.92
2019-03-26T15:38:42.754Z,69.80
2019-03-26T15:41:39.675Z,67.08
2019-03-26T15:44:36.795Z,69.15
2019-03-26T15:47:32.757Z,67.55
2019-03-26T15:50:49.499Z,78.02
2019-03-26T15:53:46.109Z,69.65
2019-03-26T15:56:47.316Z,63.80
2019-03-26T15:59:43.023Z,68.33
2019-03-26T16:02:48.714Z,69.87
2019-03-26T16:05:46.086Z,66.92
2019-03-26T16:08:44.592Z,68.12
2019-03-26T16:11:48.196Z,69.65
2019-03-26T16:14:44.085Z,71.33
2019-03-26T16:17:44.029Z,74.00
2019-03-26T16:20:39.928Z,62.62
2019-03-26T16:23:40.465Z,70.57
2019-03-26T16:26:45.618Z,73.45
2019-03-26T16:29:58.369Z,73.85
2019-03-26T16:32:55.333Z,65.62
2019-03-26T16:35:55.385Z,73.47
2019-03-26T16:38:53.101Z,65.97
2019-03-26T16:41:49.631Z,63.58
2019-03-26T16:44:46.770Z,73.65
2019-03-26T16:47:42.789Z,71.00
2019-03-26T16:50:41.567Z,65.78
2019-03-26T16:53:40.500Z,64.62
2019-03-26T16:56:34.890Z,68.50
2019-03-26T16:59:38.363Z,74.27
2019-03-26T17:02:37.704Z,74.05
2019-03-26T17:05:35.462Z,76.37
2019-03-26T17:08:36.383Z,78.40
2019-03-26T17:11:31.317Z,66.28
2019-03-26T17:14:28.164Z,63.50
2019-03-26T17:17:24.121Z,62.53
2019-03-26T17:20:19.691Z,65.15
2019-03-26T17:23:16.389Z,67.37
2019-03-26T17:26:15.342Z,66.92
2019-03-26T17:29:10.763Z,70.15
2019-03-26T17:32:07.127Z,62.67
2019-03-26T17:35:03.034Z,59.18
2019-03-26T17:38:00.410Z,61.73
2019-03-26T17:41:09.430Z,64.17
2019-03-26T17:44:07.845Z,62.95
2019-03-26T17:47:04.823Z,57.73
2019-03-26T17:50:03.970Z,50.90
2019-03-26T17:52:59.819Z,52.03
2019-03-26T17:55:56.462Z,54.93
2019-03-26T17:58:52.576Z,53.27
2019-03-26T18:01:48.511Z,50.12
2019-03-26T18:04:44.904Z,46.65
2019-03-26T18:07:40.422Z,40.48
2019-03-26T18:10:36.304Z,48.45
2019-03-26T18:13:32.374Z,45.83
2019-03-26T18:16:43.260Z,48.33
2019-03-26T18:19:41.161Z,40.00
2019-03-26T18:22:36.672Z,45.60
2019-03-26T18:25:32.175Z,43.73
2019-03-26T18:28:27.600Z,41.80
2019-03-26T18:31:23.085Z,47.70
2019-03-26T18:34:18.470Z,39.13
2019-03-26T18:37:14.251Z,43.28
2019-03-26T18:40:09.923Z,37.63
2019-03-26T18:43:06.089Z,43.60
2019-03-26T18:46:01.629Z,42.90
2019-03-26T18:48:57.212Z,39.33
2019-03-26T18:51:53.003Z,39.17
2019-03-26T18:54:49.154Z,37.42
2019-03-26T18:57:44.626Z,40.70
2019-03-26T19:00:41.715Z,43.90
2019-03-26T19:03:37.865Z,36.03
2019-03-26T19:06:33.782Z,36.33
2019-03-26T19:09:29.251Z,31.68
2019-03-26T19:12:24.628Z,32.70
2019-03-26T19:15:20.744Z,37.97
2019-03-26T19:18:16.182Z,32.78
2019-03-26T19:21:11.868Z,38.85
2019-03-26T19:24:07.513Z,29.23
2019-03-26T19:27:04.367Z,29.37
2019-03-26T19:30:00.499Z,30.53
2019-03-26T19:32:57.638Z,32.93
2019-03-26T19:35:53.315Z,33.80
2019-03-26T19:38:49.245Z,28.17
2019-03-26T19:41:44.568Z,29.17
2019-03-26T19:44:41.896Z,31.83
2019-03-26T19:47:36.766Z,26.90
2019-03-26T19:50:32.271Z,34.48
2019-03-26T19:53:27.855Z,25.43
2019-03-26T19:56:23.774Z,27.03
2019-03-26T19:59:19.540Z,30.63
2019-03-26T20:02:15.171Z,23.80
2019-03-26T20:05:11.679Z,24.37
2019-03-26T20:08:07.492Z,27.20
2019-03-26T20:11:03.127Z,22.30
2019-03-26T20:13:58.470Z,23.10
2019-03-26T20:16:53.716Z,27.97
2019-03-26T20:19:49.692Z,28.13
2019-03-26T20:22:45.330Z,22.40
2019-03-26T20:25:41.363Z,18.63
2019-03-26T20:28:36.935Z,27.50
2019-03-26T20:31:33.178Z,23.77
2019-03-26T20:34:30.676Z,20.77
2019-03-26T20:37:26.246Z,28.30
2019-03-26T20:40:21.985Z,20.83
2019-03-26T20:43:18.057Z,23.73
2019-03-26T20:46:14.151Z,21.07
2019-03-26T20:49:09.798Z,17.97
2019-03-26T20:52:05.614Z,22.70
2019-03-26T20:55:01.248Z,17.37
2019-03-26T20:57:57.056Z,19.60
2019-03-26T21:00:52.707Z,18.93
2019-03-26T21:03:50.090Z,21.13
2019-03-26T21:06:46.107Z,24.03
2019-03-26T21:09:41.931Z,21.63
2019-03-26T21:12:37.310Z,17.17
2019-03-26T21:15:33.022Z,18.57
2019-03-26T21:18:29.033Z,21.33
2019-03-26T21:21:24.716Z,16.20
2019-03-26T21:24:20.633Z,18.53
2019-03-26T21:27:17.079Z,20.33
2019-03-26T21:30:15.993Z,21.70
2019-03-26T21:33:12.082Z,22.70
2019-03-26T21:36:08.299Z,22.37
2019-03-26T21:39:04.496Z,23.03
2019-03-26T21:42:01.066Z,22.53
2019-03-26T21:44:56.430Z,18.13
2019-03-26T21:47:51.598Z,20.47
2019-03-26T21:50:47.423Z,20.53
2019-03-26T21:53:43.541Z,19.07
2019-03-26T21:56:39.264Z,26.27
2019-03-26T21:59:34.948Z,19.67
2019-03-26T22:02:31.093Z,18.27
2019-03-26T22:05:26.972Z,21.23
2019-03-26T22:08:22.801Z,17.13
2019-03-26T22:11:18.368Z,18.83
2019-03-26T22:14:18.329Z,16.03
2019-03-26T22:17:11.012Z,15.90
2019-03-26T22:20:07.959Z,19.40
2019-03-26T22:23:03.837Z,16.90
2019-03-26T22:25:59.710Z,16.80
2019-03-26T22:28:55.468Z,20.50
2019-03-26T22:31:51.291Z,17.80
2019-03-26T22:34:46.512Z,21.93
2019-03-26T22:37:42.188Z,20.37
2019-03-26T22:40:37.920Z,19.07
2019-03-26T22:43:33.607Z,20.00
2019-03-26T22:46:29.242Z,18.63
2019-03-26T22:49:24.787Z,21.07
2019-03-26T22:52:20.470Z,19.23
2019-03-26T22:55:16.353Z,22.07
2019-03-26T22:58:12.037Z,18.83
2019-03-26T23:01:08.978Z,22.83
2019-03-26T23:04:05.927Z,19.73
2019-03-26T23:07:02.019Z,22.20
2019-03-26T23:09:59.016Z,20.87
2019-03-26T23:12:54.308Z,26.00
2019-03-26T23:15:50.215Z,16.73
2019-03-26T23:18:45.431Z,21.43
2019-03-26T23:21:40.627Z,20.57
2019-03-26T23:24:36.025Z,18.27
2019-03-26T23:27:31.289Z,21.07
2019-03-26T23:30:27.506Z,22.37
2019-03-26T23:33:22.900Z,24.83
2019-03-26T23:36:18.730Z,21.20
2019-03-26T23:39:14.402Z,23.13
2019-03-26T23:42:10.143Z,20.40
2019-03-26T23:45:05.813Z,23.23
2019-03-26T23:48:01.391Z,22.40
2019-03-26T23:50:57.170Z,30.77
2019-03-26T23:53:53.524Z,33.13
2019-03-26T23:56:49.390Z,21.77
2019-03-26T23:59:45.180Z,24.57
